sensor_id;sensor_type;location;lat;lon;timestamp;P1;durP1;ratioP1;P2;durP2;ratioP2
35434;SDS011;21556;55.782;37.528;2023-02-15T00:01:05;2.80;;;0.60;;
35434;SDS011;21556;55.782;37.528;2023-02-15T00:03:36;2.63;;;0.73;;
35434;SDS011;21556;55.782;37.528;2023-02-15T00:06:03;1.67;;;0.70;;
35434;SDS011;21556;55.782;37.528;2023-02-15T00:08:30;2.73;;;0.93;;
35434;SDS011;21556;55.782;37.528;2023-02-15T00:13:32;2.20;;;0.63;;
35434;SDS011;21556;55.782;37.528;2023-02-15T00:16:04;4.25;;;0.85;;
35434;SDS011;21556;55.782;37.528;2023-02-15T00:18:31;2.90;;;0.70;;
35434;SDS011;21556;55.782;37.528;2023-02-15T00:20:57;3.97;;;0.80;;
35434;SDS011;21556;55.782;37.528;2023-02-15T00:23:23;2.60;;;0.70;;
35434;SDS011;21556;55.782;37.528;2023-02-15T00:25:51;3.67;;;0.90;;
35434;SDS011;21556;55.782;37.528;2023-02-15T00:28:17;2.40;;;0.80;;
35434;SDS011;21556;55.782;37.528;2023-02-15T00:30:43;2.00;;;0.60;;
35434;SDS011;21556;55.782;37.528;2023-02-15T00:33:09;3.13;;;0.77;;
35434;SDS011;21556;55.782;37.528;2023-02-15T00:35:37;4.07;;;0.80;;
35434;SDS011;21556;55.782;37.528;2023-02-15T00:38:03;4.90;;;0.85;;
35434;SDS011;21556;55.782;37.528;2023-02-15T00:40:29;3.53;;;0.77;;
35434;SDS011;21556;55.782;37.528;2023-02-15T00:42:55;3.40;;;0.93;;
35434;SDS011;21556;55.782;37.528;2023-02-15T00:45:23;1.00;;;0.43;;
35434;SDS011;21556;55.782;37.528;2023-02-15T00:47:51;1.97;;;0.70;;
35434;SDS011;21556;55.782;37.528;2023-02-15T00:50:16;3.60;;;0.87;;
35434;SDS011;21556;55.782;37.528;2023-02-15T00:52:45;2.67;;;1.00;;
35434;SDS011;21556;55.782;37.528;2023-02-15T00:55:11;4.07;;;0.97;;
35434;SDS011;21556;55.782;37.528;2023-02-15T00:57:39;3.95;;;0.80;;
35434;SDS011;21556;55.782;37.528;2023-02-15T01:00:05;2.73;;;0.80;;
35434;SDS011;21556;55.782;37.528;2023-02-15T01:02:31;4.23;;;0.90;;
35434;SDS011;21556;55.782;37.528;2023-02-15T01:04:57;3.47;;;0.70;;
35434;SDS011;21556;55.782;37.528;2023-02-15T01:07:24;4.10;;;0.60;;
35434;SDS011;21556;55.782;37.528;2023-02-15T01:09:51;4.50;;;0.87;;
35434;SDS011;21556;55.782;37.528;2023-02-15T01:12:18;2.77;;;0.77;;
35434;SDS011;21556;55.782;37.528;2023-02-15T01:14:46;2.27;;;1.03;;
35434;SDS011;21556;55.782;37.528;2023-02-15T01:17:12;4.93;;;1.43;;
35434;SDS011;21556;55.782;37.528;2023-02-15T01:19:38;4.10;;;0.93;;
35434;SDS011;21556;55.782;37.528;2023-02-15T01:24:34;3.13;;;0.95;;
35434;SDS011;21556;55.782;37.528;2023-02-15T01:27:01;3.97;;;1.23;;
35434;SDS011;21556;55.782;37.528;2023-02-15T01:29:27;3.00;;;0.80;;
35434;SDS011;21556;55.782;37.528;2023-02-15T01:31:53;4.80;;;1.03;;
35434;SDS011;21556;55.782;37.528;2023-02-15T01:36:47;3.07;;;0.77;;
35434;SDS011;21556;55.782;37.528;2023-02-15T01:39:14;3.10;;;1.07;;
35434;SDS011;21556;55.782;37.528;2023-02-15T01:41:40;1.37;;;0.70;;
35434;SDS011;21556;55.782;37.528;2023-02-15T01:47:10;5.07;;;0.77;;
35434;SDS011;21556;55.782;37.528;2023-02-15T01:49:40;4.13;;;0.90;;
35434;SDS011;21556;55.782;37.528;2023-02-15T01:52:09;3.63;;;1.23;;
35434;SDS011;21556;55.782;37.528;2023-02-15T01:54:39;2.43;;;0.83;;
35434;SDS011;21556;55.782;37.528;2023-02-15T01:57:09;5.70;;;1.13;;
35434;SDS011;21556;55.782;37.528;2023-02-15T01:59:38;3.33;;;0.70;;
35434;SDS011;21556;55.782;37.528;2023-02-15T02:07:06;5.70;;;0.90;;
35434;SDS011;21556;55.782;37.528;2023-02-15T02:09:34;3.87;;;1.13;;
35434;SDS011;21556;55.782;37.528;2023-02-15T02:12:02;4.45;;;0.80;;
35434;SDS011;21556;55.782;37.528;2023-02-15T02:14:28;4.10;;;1.00;;
35434;SDS011;21556;55.782;37.528;2023-02-15T02:22:59;3.40;;;0.80;;
35434;SDS011;21556;55.782;37.528;2023-02-15T02:25:59;3.70;;;0.90;;
35434;SDS011;21556;55.782;37.528;2023-02-15T02:31:31;3.53;;;0.80;;
35434;SDS011;21556;55.782;37.528;2023-02-15T02:37:20;2.20;;;1.13;;
35434;SDS011;21556;55.782;37.528;2023-02-15T02:40:07;2.27;;;0.70;;
35434;SDS011;21556;55.782;37.528;2023-02-15T02:43:01;3.07;;;0.77;;
35434;SDS011;21556;55.782;37.528;2023-02-15T02:45:36;4.67;;;1.57;;
35434;SDS011;21556;55.782;37.528;2023-02-15T02:48:08;4.33;;;1.30;;
35434;SDS011;21556;55.782;37.528;2023-02-15T02:50:42;4.23;;;1.43;;
35434;SDS011;21556;55.782;37.528;2023-02-15T02:53:08;4.87;;;1.20;;
35434;SDS011;21556;55.782;37.528;2023-02-15T03:00:53;1.77;;;1.00;;
35434;SDS011;21556;55.782;37.528;2023-02-15T03:05:56;4.10;;;0.90;;
35434;SDS011;21556;55.782;37.528;2023-02-15T03:08:30;3.47;;;1.10;;
35434;SDS011;21556;55.782;37.528;2023-02-15T03:11:02;1.70;;;0.90;;
35434;SDS011;21556;55.782;37.528;2023-02-15T03:13:31;1.90;;;0.90;;
35434;SDS011;21556;55.782;37.528;2023-02-15T03:15:59;3.03;;;0.95;;
35434;SDS011;21556;55.782;37.528;2023-02-15T03:18:49;3.20;;;1.30;;
35434;SDS011;21556;55.782;37.528;2023-02-15T03:21:24;5.07;;;1.30;;
35434;SDS011;21556;55.782;37.528;2023-02-15T03:24:08;7.30;;;1.90;;
35434;SDS011;21556;55.782;37.528;2023-02-15T03:26:38;3.50;;;1.40;;
35434;SDS011;21556;55.782;37.528;2023-02-15T03:29:08;4.47;;;0.90;;
35434;SDS011;21556;55.782;37.528;2023-02-15T03:31:37;2.42;;;1.17;;
35434;SDS011;21556;55.782;37.528;2023-02-15T03:34:07;4.10;;;1.37;;
35434;SDS011;21556;55.782;37.528;2023-02-15T03:36:43;5.63;;;1.27;;
35434;SDS011;21556;55.782;37.528;2023-02-15T03:42:19;4.47;;;1.30;;
35434;SDS011;21556;55.782;37.528;2023-02-15T03:45:08;3.90;;;1.10;;
35434;SDS011;21556;55.782;37.528;2023-02-15T03:47:38;3.27;;;1.00;;
35434;SDS011;21556;55.782;37.528;2023-02-15T03:50:10;3.43;;;1.30;;
35434;SDS011;21556;55.782;37.528;2023-02-15T03:52:57;2.42;;;1.02;;
35434;SDS011;21556;55.782;37.528;2023-02-15T03:55:25;3.37;;;0.80;;
35434;SDS011;21556;55.782;37.528;2023-02-15T03:57:52;4.40;;;1.43;;
35434;SDS011;21556;55.782;37.528;2023-02-15T04:00:37;3.80;;;0.70;;
35434;SDS011;21556;55.782;37.528;2023-02-15T04:03:37;2.80;;;0.83;;
35434;SDS011;21556;55.782;37.528;2023-02-15T04:06:06;4.77;;;1.27;;
35434;SDS011;21556;55.782;37.528;2023-02-15T04:08:32;4.23;;;0.90;;
35434;SDS011;21556;55.782;37.528;2023-02-15T04:11:16;3.83;;;0.93;;
35434;SDS011;21556;55.782;37.528;2023-02-15T04:13:42;1.83;;;1.10;;
35434;SDS011;21556;55.782;37.528;2023-02-15T04:16:08;2.13;;;0.90;;
35434;SDS011;21556;55.782;37.528;2023-02-15T04:18:41;4.87;;;0.83;;
35434;SDS011;21556;55.782;37.528;2023-02-15T04:21:30;1.57;;;0.80;;
35434;SDS011;21556;55.782;37.528;2023-02-15T04:24:14;3.60;;;1.43;;
35434;SDS011;21556;55.782;37.528;2023-02-15T04:26:59;2.70;;;1.03;;
35434;SDS011;21556;55.782;37.528;2023-02-15T04:29:26;4.10;;;0.97;;
35434;SDS011;21556;55.782;37.528;2023-02-15T04:31:56;4.37;;;1.53;;
35434;SDS011;21556;55.782;37.528;2023-02-15T04:34:23;3.10;;;1.15;;
35434;SDS011;21556;55.782;37.528;2023-02-15T04:36:50;3.77;;;1.10;;
35434;SDS011;21556;55.782;37.528;2023-02-15T04:39:16;3.00;;;1.00;;
35434;SDS011;21556;55.782;37.528;2023-02-15T04:41:43;3.38;;;0.98;;
35434;SDS011;21556;55.782;37.528;2023-02-15T04:44:14;4.07;;;1.27;;
35434;SDS011;21556;55.782;37.528;2023-02-15T04:46:40;3.43;;;1.17;;
35434;SDS011;21556;55.782;37.528;2023-02-15T04:49:07;3.30;;;1.07;;
35434;SDS011;21556;55.782;37.528;2023-02-15T04:51:34;3.30;;;1.17;;
35434;SDS011;21556;55.782;37.528;2023-02-15T04:53:59;2.13;;;0.97;;
35434;SDS011;21556;55.782;37.528;2023-02-15T04:56:25;4.83;;;1.33;;
35434;SDS011;21556;55.782;37.528;2023-02-15T04:58:51;4.20;;;1.30;;
35434;SDS011;21556;55.782;37.528;2023-02-15T05:01:17;3.27;;;1.20;;
35434;SDS011;21556;55.782;37.528;2023-02-15T05:03:44;3.30;;;1.40;;
35434;SDS011;21556;55.782;37.528;2023-02-15T05:06:11;5.57;;;1.10;;
35434;SDS011;21556;55.782;37.528;2023-02-15T05:08:37;3.83;;;0.90;;
35434;SDS011;21556;55.782;37.528;2023-02-15T05:11:02;1.17;;;0.40;;
35434;SDS011;21556;55.782;37.528;2023-02-15T05:13:28;5.27;;;1.23;;
35434;SDS011;21556;55.782;37.528;2023-02-15T05:15:54;5.83;;;1.23;;
35434;SDS011;21556;55.782;37.528;2023-02-15T05:18:20;4.37;;;1.10;;
35434;SDS011;21556;55.782;37.528;2023-02-15T05:20:47;7.33;;;0.93;;
35434;SDS011;21556;55.782;37.528;2023-02-15T05:23:13;2.77;;;1.20;;
35434;SDS011;21556;55.782;37.528;2023-02-15T05:25:40;5.47;;;1.40;;
35434;SDS011;21556;55.782;37.528;2023-02-15T05:28:24;3.43;;;1.10;;
35434;SDS011;21556;55.782;37.528;2023-02-15T05:31:05;5.03;;;1.27;;
35434;SDS011;21556;55.782;37.528;2023-02-15T05:33:33;4.33;;;1.23;;
35434;SDS011;21556;55.782;37.528;2023-02-15T05:36:00;4.10;;;1.20;;
35434;SDS011;21556;55.782;37.528;2023-02-15T05:38:26;2.63;;;1.37;;
35434;SDS011;21556;55.782;37.528;2023-02-15T05:40:52;3.57;;;1.50;;
35434;SDS011;21556;55.782;37.528;2023-02-15T05:43:19;5.40;;;1.40;;
35434;SDS011;21556;55.782;37.528;2023-02-15T05:45:47;4.85;;;1.75;;
35434;SDS011;21556;55.782;37.528;2023-02-15T05:48:15;2.92;;;1.40;;
35434;SDS011;21556;55.782;37.528;2023-02-15T05:50:41;5.27;;;1.20;;
35434;SDS011;21556;55.782;37.528;2023-02-15T05:53:07;6.87;;;1.90;;
35434;SDS011;21556;55.782;37.528;2023-02-15T05:55:33;4.53;;;1.70;;
35434;SDS011;21556;55.782;37.528;2023-02-15T05:57:59;6.43;;;1.60;;
35434;SDS011;21556;55.782;37.528;2023-02-15T06:00:25;8.63;;;1.60;;
35434;SDS011;21556;55.782;37.528;2023-02-15T06:02:51;6.20;;;1.57;;
35434;SDS011;21556;55.782;37.528;2023-02-15T06:05:17;5.93;;;2.00;;
35434;SDS011;21556;55.782;37.528;2023-02-15T06:07:43;4.57;;;1.90;;
35434;SDS011;21556;55.782;37.528;2023-02-15T06:10:10;4.80;;;2.00;;
35434;SDS011;21556;55.782;37.528;2023-02-15T06:12:36;4.93;;;2.13;;
35434;SDS011;21556;55.782;37.528;2023-02-15T06:15:02;11.57;;;2.90;;
35434;SDS011;21556;55.782;37.528;2023-02-15T06:17:30;4.35;;;1.95;;
35434;SDS011;21556;55.782;37.528;2023-02-15T06:19:56;6.53;;;2.60;;
35434;SDS011;21556;55.782;37.528;2023-02-15T06:22:22;5.97;;;2.20;;
35434;SDS011;21556;55.782;37.528;2023-02-15T06:24:48;6.47;;;2.47;;
35434;SDS011;21556;55.782;37.528;2023-02-15T06:27:14;6.57;;;2.43;;
35434;SDS011;21556;55.782;37.528;2023-02-15T06:29:43;3.93;;;1.57;;
35434;SDS011;21556;55.782;37.528;2023-02-15T06:32:12;4.67;;;2.00;;
35434;SDS011;21556;55.782;37.528;2023-02-15T06:34:37;5.23;;;2.40;;
35434;SDS011;21556;55.782;37.528;2023-02-15T06:37:03;6.17;;;2.50;;
35434;SDS011;21556;55.782;37.528;2023-02-15T06:39:32;5.50;;;2.37;;
35434;SDS011;21556;55.782;37.528;2023-02-15T06:41:58;5.73;;;2.70;;
35434;SDS011;21556;55.782;37.528;2023-02-15T06:44:24;6.30;;;2.87;;
35434;SDS011;21556;55.782;37.528;2023-02-15T06:46:50;6.53;;;2.63;;
35434;SDS011;21556;55.782;37.528;2023-02-15T06:49:17;5.73;;;2.00;;
35434;SDS011;21556;55.782;37.528;2023-02-15T06:51:42;4.83;;;2.10;;
35434;SDS011;21556;55.782;37.528;2023-02-15T06:54:08;5.90;;;1.90;;
35434;SDS011;21556;55.782;37.528;2023-02-15T06:56:34;4.30;;;1.60;;
35434;SDS011;21556;55.782;37.528;2023-02-15T06:59:00;7.37;;;2.47;;
35434;SDS011;21556;55.782;37.528;2023-02-15T07:01:26;5.40;;;2.40;;
35434;SDS011;21556;55.782;37.528;2023-02-15T07:03:52;6.57;;;2.03;;
35434;SDS011;21556;55.782;37.528;2023-02-15T07:06:18;7.33;;;2.10;;
35434;SDS011;21556;55.782;37.528;2023-02-15T07:08:44;6.43;;;2.13;;
35434;SDS011;21556;55.782;37.528;2023-02-15T07:11:13;7.67;;;2.37;;
35434;SDS011;21556;55.782;37.528;2023-02-15T07:14:18;4.30;;;1.93;;
35434;SDS011;21556;55.782;37.528;2023-02-15T07:17:01;4.20;;;1.80;;
35434;SDS011;21556;55.782;37.528;2023-02-15T07:19:32;6.60;;;2.27;;
35434;SDS011;21556;55.782;37.528;2023-02-15T07:22:01;7.20;;;2.17;;
35434;SDS011;21556;55.782;37.528;2023-02-15T07:24:32;8.17;;;2.57;;
35434;SDS011;21556;55.782;37.528;2023-02-15T07:26:59;3.30;;;1.80;;
35434;SDS011;21556;55.782;37.528;2023-02-15T07:29:25;4.50;;;1.90;;
35434;SDS011;21556;55.782;37.528;2023-02-15T07:31:51;3.83;;;1.37;;
35434;SDS011;21556;55.782;37.528;2023-02-15T07:34:17;4.37;;;2.23;;
35434;SDS011;21556;55.782;37.528;2023-02-15T07:36:44;4.53;;;2.47;;
35434;SDS011;21556;55.782;37.528;2023-02-15T07:39:13;3.73;;;2.20;;
35434;SDS011;21556;55.782;37.528;2023-02-15T07:41:42;6.40;;;2.87;;
35434;SDS011;21556;55.782;37.528;2023-02-15T07:44:14;5.37;;;2.83;;
35434;SDS011;21556;55.782;37.528;2023-02-15T07:46:40;4.07;;;2.67;;
35434;SDS011;21556;55.782;37.528;2023-02-15T07:49:07;5.33;;;2.17;;
35434;SDS011;21556;55.782;37.528;2023-02-15T07:51:33;4.37;;;2.60;;
35434;SDS011;21556;55.782;37.528;2023-02-15T07:54:01;7.67;;;2.47;;
35434;SDS011;21556;55.782;37.528;2023-02-15T07:56:27;6.57;;;2.40;;
35434;SDS011;21556;55.782;37.528;2023-02-15T07:58:53;8.43;;;2.77;;
35434;SDS011;21556;55.782;37.528;2023-02-15T08:01:25;15.77;;;3.23;;
35434;SDS011;21556;55.782;37.528;2023-02-15T08:03:55;5.90;;;2.90;;
35434;SDS011;21556;55.782;37.528;2023-02-15T08:06:22;5.13;;;2.17;;
35434;SDS011;21556;55.782;37.528;2023-02-15T08:08:49;4.15;;;1.90;;
35434;SDS011;21556;55.782;37.528;2023-02-15T08:11:26;3.03;;;1.87;;
35434;SDS011;21556;55.782;37.528;2023-02-15T08:14:03;4.30;;;2.33;;
35434;SDS011;21556;55.782;37.528;2023-02-15T08:16:39;7.10;;;2.50;;
35434;SDS011;21556;55.782;37.528;2023-02-15T08:19:09;3.23;;;2.10;;
35434;SDS011;21556;55.782;37.528;2023-02-15T08:21:49;5.73;;;2.10;;
35434;SDS011;21556;55.782;37.528;2023-02-15T08:24:20;5.00;;;2.30;;
35434;SDS011;21556;55.782;37.528;2023-02-15T08:26:47;8.05;;;2.83;;
35434;SDS011;21556;55.782;37.528;2023-02-15T08:29:15;5.93;;;2.50;;
35434;SDS011;21556;55.782;37.528;2023-02-15T08:31:42;5.25;;;2.35;;
35434;SDS011;21556;55.782;37.528;2023-02-15T08:34:09;5.63;;;2.20;;
35434;SDS011;21556;55.782;37.528;2023-02-15T08:36:42;7.93;;;2.67;;
35434;SDS011;21556;55.782;37.528;2023-02-15T08:39:11;5.90;;;2.63;;
35434;SDS011;21556;55.782;37.528;2023-02-15T08:41:42;4.17;;;2.60;;
35434;SDS011;21556;55.782;37.528;2023-02-15T08:44:09;5.57;;;2.43;;
35434;SDS011;21556;55.782;37.528;2023-02-15T08:46:37;3.90;;;2.00;;
35434;SDS011;21556;55.782;37.528;2023-02-15T08:49:08;6.67;;;2.00;;
35434;SDS011;21556;55.782;37.528;2023-02-15T08:51:36;6.03;;;2.83;;
35434;SDS011;21556;55.782;37.528;2023-02-15T08:54:04;5.63;;;2.43;;
35434;SDS011;21556;55.782;37.528;2023-02-15T08:56:33;5.10;;;1.83;;
35434;SDS011;21556;55.782;37.528;2023-02-15T08:59:01;3.07;;;1.80;;
35434;SDS011;21556;55.782;37.528;2023-02-15T09:01:31;3.73;;;1.63;;
35434;SDS011;21556;55.782;37.528;2023-02-15T09:04:03;7.57;;;2.77;;
35434;SDS011;21556;55.782;37.528;2023-02-15T09:06:55;3.67;;;1.80;;
35434;SDS011;21556;55.782;37.528;2023-02-15T09:18:37;3.17;;;2.20;;
35434;SDS011;21556;55.782;37.528;2023-02-15T09:21:11;4.13;;;2.10;;
35434;SDS011;21556;55.782;37.528;2023-02-15T09:23:45;4.77;;;2.53;;
35434;SDS011;21556;55.782;37.528;2023-02-15T09:26:15;5.47;;;2.10;;
35434;SDS011;21556;55.782;37.528;2023-02-15T09:28:52;4.80;;;1.63;;
35434;SDS011;21556;55.782;37.528;2023-02-15T09:31:28;6.97;;;2.10;;
35434;SDS011;21556;55.782;37.528;2023-02-15T09:33:58;3.57;;;1.77;;
35434;SDS011;21556;55.782;37.528;2023-02-15T09:36:29;3.97;;;2.53;;
35434;SDS011;21556;55.782;37.528;2023-02-15T09:39:03;3.70;;;2.13;;
35434;SDS011;21556;55.782;37.528;2023-02-15T09:44:32;3.80;;;1.73;;
35434;SDS011;21556;55.782;37.528;2023-02-15T09:55:42;4.77;;;1.73;;
35434;SDS011;21556;55.782;37.528;2023-02-15T10:03:44;5.53;;;2.03;;
35434;SDS011;21556;55.782;37.528;2023-02-15T10:06:32;4.70;;;1.60;;
35434;SDS011;21556;55.782;37.528;2023-02-15T10:29:04;3.47;;;1.83;;
35434;SDS011;21556;55.782;37.528;2023-02-15T10:34:19;5.07;;;1.67;;
35434;SDS011;21556;55.782;37.528;2023-02-15T10:36:56;5.10;;;1.53;;
35434;SDS011;21556;55.782;37.528;2023-02-15T10:57:14;4.13;;;1.23;;
35434;SDS011;21556;55.782;37.528;2023-02-15T11:00:22;4.20;;;1.20;;
35434;SDS011;21556;55.782;37.528;2023-02-15T11:03:05;2.83;;;1.13;;
35434;SDS011;21556;55.782;37.528;2023-02-15T11:08:23;3.17;;;1.40;;
35434;SDS011;21556;55.782;37.528;2023-02-15T11:10:52;3.50;;;1.70;;
35434;SDS011;21556;55.782;37.528;2023-02-15T11:13:22;4.20;;;1.90;;
35434;SDS011;21556;55.782;37.528;2023-02-15T11:16:12;3.20;;;1.63;;
35434;SDS011;21556;55.782;37.528;2023-02-15T11:18:42;4.73;;;1.93;;
35434;SDS011;21556;55.782;37.528;2023-02-15T11:21:17;3.03;;;1.77;;
35434;SDS011;21556;55.782;37.528;2023-02-15T11:24:26;3.13;;;1.60;;
35434;SDS011;21556;55.782;37.528;2023-02-15T11:27:39;2.23;;;1.40;;
35434;SDS011;21556;55.782;37.528;2023-02-15T11:32:25;2.73;;;1.20;;
35434;SDS011;21556;55.782;37.528;2023-02-15T11:37:48;3.13;;;1.30;;
35434;SDS011;21556;55.782;37.528;2023-02-15T11:40:26;6.37;;;1.77;;
35434;SDS011;21556;55.782;37.528;2023-02-15T11:43:03;4.80;;;1.70;;
35434;SDS011;21556;55.782;37.528;2023-02-15T11:45:36;2.77;;;1.80;;
35434;SDS011;21556;55.782;37.528;2023-02-15T11:48:09;4.60;;;2.40;;
35434;SDS011;21556;55.782;37.528;2023-02-15T11:50:37;3.83;;;1.77;;
35434;SDS011;21556;55.782;37.528;2023-02-15T11:53:17;3.30;;;1.40;;
35434;SDS011;21556;55.782;37.528;2023-02-15T11:55:47;5.60;;;2.00;;
35434;SDS011;21556;55.782;37.528;2023-02-15T11:58:21;3.70;;;1.50;;
35434;SDS011;21556;55.782;37.528;2023-02-15T12:01:15;2.67;;;1.40;;
35434;SDS011;21556;55.782;37.528;2023-02-15T12:03:49;4.00;;;1.37;;
35434;SDS011;21556;55.782;37.528;2023-02-15T12:09:34;2.30;;;1.03;;
35434;SDS011;21556;55.782;37.528;2023-02-15T12:12:22;1.93;;;1.17;;
35434;SDS011;21556;55.782;37.528;2023-02-15T12:14:53;2.00;;;1.17;;
35434;SDS011;21556;55.782;37.528;2023-02-15T12:17:30;3.67;;;1.20;;
35434;SDS011;21556;55.782;37.528;2023-02-15T12:20:27;2.77;;;1.47;;
35434;SDS011;21556;55.782;37.528;2023-02-15T12:22:54;1.53;;;0.93;;
35434;SDS011;21556;55.782;37.528;2023-02-15T12:28:25;2.33;;;1.20;;
35434;SDS011;21556;55.782;37.528;2023-02-15T12:30:58;3.70;;;0.90;;
35434;SDS011;21556;55.782;37.528;2023-02-15T12:33:35;1.70;;;0.50;;
35434;SDS011;21556;55.782;37.528;2023-02-15T12:41:36;1.83;;;0.77;;
35434;SDS011;21556;55.782;37.528;2023-02-15T12:44:17;1.87;;;0.77;;
35434;SDS011;21556;55.782;37.528;2023-02-15T12:46:55;1.23;;;0.47;;
35434;SDS011;21556;55.782;37.528;2023-02-15T12:49:31;5.07;;;0.80;;
35434;SDS011;21556;55.782;37.528;2023-02-15T12:52:02;2.90;;;0.83;;
35434;SDS011;21556;55.782;37.528;2023-02-15T12:54:34;1.17;;;0.90;;
35434;SDS011;21556;55.782;37.528;2023-02-15T13:02:44;1.38;;;0.73;;
35434;SDS011;21556;55.782;37.528;2023-02-15T13:08:02;1.40;;;0.70;;
35434;SDS011;21556;55.782;37.528;2023-02-15T13:11:09;0.90;;;0.60;;
35434;SDS011;21556;55.782;37.528;2023-02-15T13:13:34;3.13;;;0.80;;
35434;SDS011;21556;55.782;37.528;2023-02-15T13:16:11;1.67;;;0.70;;
35434;SDS011;21556;55.782;37.528;2023-02-15T13:18:43;1.87;;;0.67;;
35434;SDS011;21556;55.782;37.528;2023-02-15T13:24:04;1.37;;;0.73;;
35434;SDS011;21556;55.782;37.528;2023-02-15T13:26:35;4.17;;;0.80;;
35434;SDS011;21556;55.782;37.528;2023-02-15T13:29:29;0.73;;;0.50;;
35434;SDS011;21556;55.782;37.528;2023-02-15T13:32:00;0.93;;;0.40;;
35434;SDS011;21556;55.782;37.528;2023-02-15T13:34:34;2.57;;;1.17;;
35434;SDS011;21556;55.782;37.528;2023-02-15T13:49:17;1.40;;;0.60;;
35434;SDS011;21556;55.782;37.528;2023-02-15T14:00:33;1.90;;;0.70;;
35434;SDS011;21556;55.782;37.528;2023-02-15T14:30:45;1.43;;;0.80;;
35434;SDS011;21556;55.782;37.528;2023-02-15T14:33:25;2.47;;;0.73;;
35434;SDS011;21556;55.782;37.528;2023-02-15T14:35:58;2.30;;;0.80;;
35434;SDS011;21556;55.782;37.528;2023-02-15T14:41:04;3.57;;;0.67;;
35434;SDS011;21556;55.782;37.528;2023-02-15T14:46:09;1.60;;;0.80;;
35434;SDS011;21556;55.782;37.528;2023-02-15T14:48:57;2.78;;;1.83;;
35434;SDS011;21556;55.782;37.528;2023-02-15T14:51:53;2.30;;;0.70;;
35434;SDS011;21556;55.782;37.528;2023-02-15T15:02:14;1.97;;;0.70;;
35434;SDS011;21556;55.782;37.528;2023-02-15T15:12:47;2.00;;;0.83;;
35434;SDS011;21556;55.782;37.528;2023-02-15T15:18:08;2.00;;;0.40;;
35434;SDS011;21556;55.782;37.528;2023-02-15T15:20:55;3.50;;;0.50;;
35434;SDS011;21556;55.782;37.528;2023-02-15T15:36:59;1.80;;;0.60;;
35434;SDS011;21556;55.782;37.528;2023-02-15T15:39:42;1.45;;;0.70;;
35434;SDS011;21556;55.782;37.528;2023-02-15T15:42:31;2.13;;;0.40;;
35434;SDS011;21556;55.782;37.528;2023-02-15T15:50:56;1.23;;;0.40;;
35434;SDS011;21556;55.782;37.528;2023-02-15T15:53:25;1.77;;;0.50;;
35434;SDS011;21556;55.782;37.528;2023-02-15T15:55:56;2.17;;;0.50;;
35434;SDS011;21556;55.782;37.528;2023-02-15T15:58:26;1.27;;;0.60;;
35434;SDS011;21556;55.782;37.528;2023-02-15T16:00:54;2.30;;;1.00;;
35434;SDS011;21556;55.782;37.528;2023-02-15T16:03:36;0.83;;;0.47;;
35434;SDS011;21556;55.782;37.528;2023-02-15T16:06:05;2.03;;;0.60;;
35434;SDS011;21556;55.782;37.528;2023-02-15T16:08:32;2.13;;;0.80;;
35434;SDS011;21556;55.782;37.528;2023-02-15T16:11:07;2.20;;;0.60;;
35434;SDS011;21556;55.782;37.528;2023-02-15T16:13:54;1.27;;;0.40;;
35434;SDS011;21556;55.782;37.528;2023-02-15T16:16:22;0.87;;;0.50;;
35434;SDS011;21556;55.782;37.528;2023-02-15T16:18:50;0.97;;;0.70;;
35434;SDS011;21556;55.782;37.528;2023-02-15T16:21:22;0.87;;;0.50;;
35434;SDS011;21556;55.782;37.528;2023-02-15T16:23:57;1.63;;;0.83;;
35434;SDS011;21556;55.782;37.528;2023-02-15T16:29:40;1.60;;;0.50;;
35434;SDS011;21556;55.782;37.528;2023-02-15T16:34:57;0.80;;;0.40;;
35434;SDS011;21556;55.782;37.528;2023-02-15T16:37:33;1.10;;;0.43;;
35434;SDS011;21556;55.782;37.528;2023-02-15T16:39:59;2.30;;;0.60;;
35434;SDS011;21556;55.782;37.528;2023-02-15T16:42:29;0.50;;;0.30;;
35434;SDS011;21556;55.782;37.528;2023-02-15T16:44:57;0.93;;;0.50;;
35434;SDS011;21556;55.782;37.528;2023-02-15T16:47:41;0.93;;;0.60;;
35434;SDS011;21556;55.782;37.528;2023-02-15T16:50:17;1.90;;;0.30;;
35434;SDS011;21556;55.782;37.528;2023-02-15T16:52:46;1.33;;;0.53;;
35434;SDS011;21556;55.782;37.528;2023-02-15T16:55:22;1.13;;;0.73;;
35434;SDS011;21556;55.782;37.528;2023-02-15T16:57:50;1.42;;;0.60;;
35434;SDS011;21556;55.782;37.528;2023-02-15T17:00:28;0.93;;;0.40;;
35434;SDS011;21556;55.782;37.528;2023-02-15T17:03:01;1.30;;;0.50;;
35434;SDS011;21556;55.782;37.528;2023-02-15T17:05:40;1.53;;;0.60;;
35434;SDS011;21556;55.782;37.528;2023-02-15T17:08:18;1.03;;;0.47;;
35434;SDS011;21556;55.782;37.528;2023-02-15T17:13:28;0.80;;;0.40;;
35434;SDS011;21556;55.782;37.528;2023-02-15T17:18:27;1.00;;;0.53;;
35434;SDS011;21556;55.782;37.528;2023-02-15T17:20:56;1.37;;;0.60;;
35434;SDS011;21556;55.782;37.528;2023-02-15T17:23:28;1.40;;;0.90;;
35434;SDS011;21556;55.782;37.528;2023-02-15T17:25:58;1.00;;;0.60;;
35434;SDS011;21556;55.782;37.528;2023-02-15T17:28:28;1.10;;;0.60;;
35434;SDS011;21556;55.782;37.528;2023-02-15T17:31:07;1.23;;;0.50;;
35434;SDS011;21556;55.782;37.528;2023-02-15T17:33:53;2.27;;;0.60;;
35434;SDS011;21556;55.782;37.528;2023-02-15T17:36:57;1.07;;;0.50;;
35434;SDS011;21556;55.782;37.528;2023-02-15T17:39:47;1.20;;;0.60;;
35434;SDS011;21556;55.782;37.528;2023-02-15T17:43:01;1.23;;;0.50;;
35434;SDS011;21556;55.782;37.528;2023-02-15T17:46:01;1.33;;;0.53;;
35434;SDS011;21556;55.782;37.528;2023-02-15T17:48:32;2.47;;;0.87;;
35434;SDS011;21556;55.782;37.528;2023-02-15T17:51:00;1.77;;;0.77;;
35434;SDS011;21556;55.782;37.528;2023-02-15T17:53:31;1.87;;;0.70;;
35434;SDS011;21556;55.782;37.528;2023-02-15T17:56:11;2.03;;;0.80;;
35434;SDS011;21556;55.782;37.528;2023-02-15T17:58:40;1.93;;;0.97;;
35434;SDS011;21556;55.782;37.528;2023-02-15T18:01:14;2.08;;;0.60;;
35434;SDS011;21556;55.782;37.528;2023-02-15T18:04:14;1.00;;;0.60;;
35434;SDS011;21556;55.782;37.528;2023-02-15T18:06:58;2.37;;;0.40;;
35434;SDS011;21556;55.782;37.528;2023-02-15T18:09:55;2.17;;;0.70;;
35434;SDS011;21556;55.782;37.528;2023-02-15T18:12:39;1.33;;;0.60;;
35434;SDS011;21556;55.782;37.528;2023-02-15T18:17:40;1.65;;;1.08;;
35434;SDS011;21556;55.782;37.528;2023-02-15T18:22:42;2.63;;;0.80;;
35434;SDS011;21556;55.782;37.528;2023-02-15T18:25:16;1.13;;;0.80;;
35434;SDS011;21556;55.782;37.528;2023-02-15T18:27:43;1.03;;;0.67;;
35434;SDS011;21556;55.782;37.528;2023-02-15T18:30:16;3.57;;;0.83;;
35434;SDS011;21556;55.782;37.528;2023-02-15T18:32:49;2.47;;;0.73;;
35434;SDS011;21556;55.782;37.528;2023-02-15T18:35:19;2.83;;;1.37;;
35434;SDS011;21556;55.782;37.528;2023-02-15T18:37:47;1.20;;;0.60;;
35434;SDS011;21556;55.782;37.528;2023-02-15T18:40:18;2.30;;;0.73;;
35434;SDS011;21556;55.782;37.528;2023-02-15T18:42:48;0.97;;;0.50;;
35434;SDS011;21556;55.782;37.528;2023-02-15T18:45:16;0.57;;;0.40;;
35434;SDS011;21556;55.782;37.528;2023-02-15T18:47:56;2.67;;;0.63;;
35434;SDS011;21556;55.782;37.528;2023-02-15T18:50:22;0.90;;;0.30;;
35434;SDS011;21556;55.782;37.528;2023-02-15T18:52:52;1.20;;;0.77;;
35434;SDS011;21556;55.782;37.528;2023-02-15T18:55:25;3.77;;;1.43;;
35434;SDS011;21556;55.782;37.528;2023-02-15T18:57:53;1.23;;;0.70;;
35434;SDS011;21556;55.782;37.528;2023-02-15T19:04:03;1.87;;;0.83;;
35434;SDS011;21556;55.782;37.528;2023-02-15T19:06:29;1.73;;;0.80;;
35434;SDS011;21556;55.782;37.528;2023-02-15T19:09:12;1.53;;;1.10;;
35434;SDS011;21556;55.782;37.528;2023-02-15T19:11:56;0.97;;;0.70;;